Time;durP1;ratioP1;P1;durP2;ratioP2;P2;SDS_P1;SDS_P2;PMS_P1;PMS_P2;Temp;Humidity;BMP_temperature;BMP_pressure;BME280_temperature;BME280_humidity;BME280_pressure;Samples;Min_cycle;Max_cycle;Signal;HPM_P1;HPM_P2
2021/04/14 00:05:55;;;;;;;;;59.25;46.25;;;;;;;;12482278;28;8859;-51
2021/04/14 00:11:57;;;;;;;;;54.75;46.25;;;;;;;;12482816;28;9624;-55
2021/04/14 00:17:59;;;;;;;;;58.75;45.50;;;;;;;;12482147;28;8950;-50
2021/04/14 00:24:01;;;;;;;;;53.75;44.75;;;;;;;;12482218;28;9568;-51
2021/04/14 00:30:07;;;;;;;;;56.75;46.75;;;;;;;;12482345;28;8846;-55
2021/04/14 00:36:10;;;;;;;;;51.50;44.75;;;;;;;;12481478;28;8854;-52
2021/04/14 00:42:15;;;;;;;;;55.00;43.00;;;;;;;;12481007;28;8913;-51
2021/04/14 00:48:16;;;;;;;;;55.75;44.75;;;;;;;;12481624;28;8854;-52
2021/04/14 00:54:18;;;;;;;;;57.75;46.00;;;;;;;;12480833;28;8843;-51
2021/04/14 01:00:22;;;;;;;;;53.25;44.50;;;;;;;;12495744;28;8843;-51
2021/04/14 01:06:27;;;;;;;;;54.25;44.25;;;;;;;;12479996;28;9010;-54
2021/04/14 01:12:29;;;;;;;;;59.50;49.25;;;;;;;;12480781;28;8925;-53
2021/04/14 01:18:33;;;;;;;;;51.75;44.25;;;;;;;;12480173;28;8847;-52
2021/04/14 01:24:35;;;;;;;;;47.50;41.75;;;;;;;;12479956;28;8867;-52
2021/04/14 01:30:37;;;;;;;;;54.25;46.25;;;;;;;;12480610;28;8846;-53
2021/04/14 01:36:40;;;;;;;;;47.25;41.25;;;;;;;;12479731;28;8850;-48
2021/04/14 01:42:42;;;;;;;;;55.75;42.00;;;;;;;;12480250;28;8835;-49
2021/04/14 01:48:44;;;;;;;;;58.25;44.25;;;;;;;;12483028;28;8886;-51
2021/04/14 01:54:46;;;;;;;;;49.00;42.00;;;;;;;;12488531;28;8861;-53
2021/04/14 02:00:56;;;;;;;;;51.50;42.50;;;;;;;;12488493;28;8874;-53
2021/04/14 02:06:58;;;;;;;;;53.50;44.75;;;;;;;;12487937;28;8842;-54
2021/04/14 02:13:04;;;;;;;;;42.50;39.75;;;;;;;;12488616;28;8859;-52
2021/04/14 02:19:06;;;;;;;;;44.75;36.75;;;;;;;;12488534;28;8835;-52
2021/04/14 02:25:10;;;;;;;;;46.75;42.50;;;;;;;;12487999;28;8851;-53
2021/04/14 02:31:15;;;;;;;;;49.50;43.50;;;;;;;;12487184;28;8849;-52
2021/04/14 02:37:16;;;;;;;;;42.50;40.00;;;;;;;;12487150;28;8862;-52
2021/04/14 02:43:19;;;;;;;;;44.75;41.00;;;;;;;;12486549;28;8953;-52
2021/04/14 02:49:21;;;;;;;;;50.00;42.25;;;;;;;;12486222;28;8839;-53
2021/04/14 02:55:25;;;;;;;;;51.25;42.75;;;;;;;;12484623;28;8851;-51
2021/04/14 03:01:27;;;;;;;;;49.50;41.75;;;;;;;;12486101;28;8842;-52
2021/04/14 03:07:28;;;;;;;;;48.25;42.50;;;;;;;;12484358;28;8858;-53
2021/04/14 03:13:30;;;;;;;;;48.75;42.75;;;;;;;;12485320;28;8858;-53
2021/04/14 03:19:31;;;;;;;;;47.25;40.75;;;;;;;;12483244;28;8843;-53
2021/04/14 03:25:33;;;;;;;;;51.50;42.75;;;;;;;;12485059;28;9415;-52
2021/04/14 03:31:34;;;;;;;;;54.25;44.25;;;;;;;;12484399;28;8855;-52
2021/04/14 03:37:36;;;;;;;;;51.25;43.50;;;;;;;;12484347;28;9754;-51
2021/04/14 03:43:37;;;;;;;;;52.00;44.25;;;;;;;;12484411;28;8921;-52
2021/04/14 03:49:39;;;;;;;;;48.00;43.50;;;;;;;;12484301;28;9602;-53
2021/04/14 03:55:41;;;;;;;;;57.75;45.50;;;;;;;;12482974;28;8886;-52
2021/04/14 04:01:42;;;;;;;;;62.50;51.50;;;;;;;;12953753;22;9341;-49
2021/04/14 04:07:44;;;;;;;;;51.00;43.25;;;;;;;;12504292;28;8925;-51
2021/04/14 04:13:47;;;;;;;;;51.25;43.50;;;;;;;;12496102;28;8855;-52
2021/04/14 04:19:48;;;;;;;;;48.25;42.50;;;;;;;;12486997;28;8835;-52
2021/04/14 04:25:51;;;;;;;;;59.00;46.25;;;;;;;;12533782;28;9721;-51
2021/04/14 04:31:53;;;;;;;;;49.00;44.50;;;;;;;;12532759;28;8873;-51
2021/04/14 04:37:54;;;;;;;;;51.25;40.50;;;;;;;;12504671;28;8894;-54
2021/04/14 04:43:56;;;;;;;;;60.75;45.50;;;;;;;;12507943;28;8857;-50
2021/04/14 04:49:57;;;;;;;;;51.50;44.25;;;;;;;;12485826;28;8846;-48
2021/04/14 04:55:59;;;;;;;;;50.00;43.75;;;;;;;;12481940;28;9626;-51
2021/04/14 05:02:01;;;;;;;;;52.50;42.75;;;;;;;;12483286;28;9451;-53
2021/04/14 05:08:04;;;;;;;;;44.00;38.25;;;;;;;;12483896;28;8859;-53
2021/04/14 05:14:06;;;;;;;;;55.00;44.25;;;;;;;;12507574;28;8864;-53
2021/04/14 05:20:08;;;;;;;;;49.50;42.00;;;;;;;;12504447;28;8878;-53
2021/04/14 05:26:10;;;;;;;;;44.00;40.25;;;;;;;;12501218;28;8851;-54
2021/04/14 05:32:11;;;;;;;;;57.00;47.75;;;;;;;;12519492;28;8837;-53
2021/04/14 05:38:13;;;;;;;;;55.50;47.50;;;;;;;;12548966;28;8852;-50
2021/04/14 05:44:16;;;;;;;;;51.50;42.75;;;;;;;;12546438;28;8968;-51
2021/04/14 05:50:22;;;;;;;;;53.00;45.25;;;;;;;;12547651;28;8856;-55
2021/04/14 05:56:24;;;;;;;;;58.00;46.00;;;;;;;;12547198;28;8860;-54
2021/04/14 06:02:25;;;;;;;;;57.75;46.00;;;;;;;;12527087;28;9655;-55
2021/04/14 06:08:28;;;;;;;;;41.00;37.75;;;;;;;;12547183;28;8925;-53
2021/04/14 06:14:30;;;;;;;;;46.00;41.00;;;;;;;;12516022;28;8905;-57
2021/04/14 06:20:33;;;;;;;;;39.50;38.50;;;;;;;;12529652;28;8856;-56
2021/04/14 06:32:49;;;;;;;;;50.00;43.50;;;;;;;;12544568;28;8868;-55
2021/04/14 06:38:53;;;;;;;;;40.25;34.50;;;;;;;;12518273;28;8847;-57
2021/04/14 06:44:59;;;;;;;;;38.50;36.75;;;;;;;;12493525;28;8816;-57
2021/04/14 06:51:29;;;;;;;;;42.00;39.50;;;;;;;;12535392;28;8979;-56
2021/04/14 06:57:46;;;;;;;;;44.75;38.25;;;;;;;;12502828;28;8910;-55
2021/04/14 07:03:55;;;;;;;;;48.00;41.50;;;;;;;;12517000;28;8860;-54
2021/04/14 07:10:07;;;;;;;;;42.25;39.50;;;;;;;;12516589;28;8859;-55
2021/04/14 07:16:43;;;;;;;;;34.00;31.50;;;;;;;;12493251;28;8828;-56
2021/04/14 07:22:57;;;;;;;;;34.00;25.50;;;;;;;;12512081;28;9561;-58
2021/04/14 07:29:21;;;;;;;;;35.25;32.75;;;;;;;;12507855;28;8863;-54
2021/04/14 07:35:34;;;;;;;;;37.50;34.50;;;;;;;;12496455;28;8876;-58
2021/04/14 07:41:48;;;;;;;;;38.25;35.25;;;;;;;;12511351;28;8832;-55
2021/04/14 07:47:58;;;;;;;;;31.50;31.50;;;;;;;;12495718;28;9674;-55
2021/04/14 07:54:11;;;;;;;;;36.25;33.75;;;;;;;;12525370;28;8863;-53
2021/04/14 08:00:23;;;;;;;;;42.50;35.25;;;;;;;;12518770;28;8839;-58
2021/04/14 08:06:29;;;;;;;;;41.75;33.50;;;;;;;;12481272;28;8935;-57
2021/04/14 08:12:51;;;;;;;;;32.00;25.00;;;;;;;;12493205;28;8844;-53
2021/04/14 08:19:00;;;;;;;;;43.00;35.50;;;;;;;;12527187;28;8902;-55
2021/04/14 08:25:05;;;;;;;;;32.00;31.00;;;;;;;;12511817;28;8849;-55
2021/04/14 08:31:45;;;;;;;;;28.25;23.75;;;;;;;;12515666;28;9619;-54
2021/04/14 08:37:57;;;;;;;;;29.25;29.00;;;;;;;;12529797;28;8848;-55
2021/04/14 08:44:07;;;;;;;;;33.25;31.50;;;;;;;;12510369;28;8843;-53
2021/04/14 08:50:23;;;;;;;;;42.00;38.50;;;;;;;;12520195;28;8931;-58
2021/04/14 08:56:26;;;;;;;;;54.00;45.00;;;;;;;;12529531;28;8844;-57
2021/04/14 09:02:28;;;;;;;;;45.50;41.50;;;;;;;;12508973;28;8853;-57
2021/04/14 09:08:33;;;;;;;;;34.75;31.50;;;;;;;;12514448;28;8847;-54
2021/04/14 09:14:36;;;;;;;;;20.00;20.00;;;;;;;;12525157;28;8867;-58
2021/04/14 09:20:39;;;;;;;;;21.25;17.50;;;;;;;;12528391;28;8837;-55
2021/04/14 09:26:51;;;;;;;;;15.75;14.75;;;;;;;;12529488;28;8852;-55
2021/04/14 09:32:59;;;;;;;;;15.25;14.75;;;;;;;;12527999;28;8895;-58
2021/04/14 09:39:11;;;;;;;;;14.75;14.25;;;;;;;;12526697;28;8875;-54
2021/04/14 09:45:16;;;;;;;;;16.50;14.75;;;;;;;;12525841;28;8829;-58
2021/04/14 09:51:30;;;;;;;;;18.25;18.25;;;;;;;;12515121;28;8829;-55
2021/04/14 09:57:32;;;;;;;;;29.75;25.50;;;;;;;;12502306;28;8859;-55
2021/04/14 10:03:34;;;;;;;;;19.25;17.50;;;;;;;;12526754;28;8923;-56
2021/04/14 10:09:37;;;;;;;;;18.00;18.00;;;;;;;;12503495;28;8827;-56
2021/04/14 10:15:42;;;;;;;;;23.50;21.25;;;;;;;;12514759;28;8828;-58
2021/04/14 10:21:44;;;;;;;;;16.25;16.25;;;;;;;;12535201;28;8856;-55
2021/04/14 10:27:57;;;;;;;;;18.00;15.75;;;;;;;;12529577;28;8845;-59
2021/04/14 10:34:10;;;;;;;;;17.75;14.75;;;;;;;;12516811;28;8856;-58
2021/04/14 10:40:19;;;;;;;;;19.00;17.25;;;;;;;;12530937;28;8839;-56
2021/04/14 10:46:27;;;;;;;;;11.00;10.25;;;;;;;;12486691;28;8850;-56
2021/04/14 10:52:29;;;;;;;;;14.50;14.50;;;;;;;;12533517;28;8855;-56
2021/04/14 10:58:32;;;;;;;;;16.00;14.00;;;;;;;;12510581;28;8852;-56
2021/04/14 11:04:39;;;;;;;;;19.25;16.00;;;;;;;;12532831;28;8852;-57
2021/04/14 11:10:42;;;;;;;;;20.25;17.25;;;;;;;;12532879;28;9536;-57
2021/04/14 11:16:45;;;;;;;;;17.25;16.25;;;;;;;;12525357;28;9964;-55
2021/04/14 11:22:55;;;;;;;;;19.25;19.25;;;;;;;;12529902;28;8857;-57
2021/04/14 11:28:57;;;;;;;;;18.00;16.50;;;;;;;;12527265;28;8837;-54
2021/04/14 11:35:02;;;;;;;;;18.75;16.25;;;;;;;;12532804;28;8841;-56
2021/04/14 11:41:28;;;;;;;;;18.25;14.50;;;;;;;;12515378;28;8974;-55
2021/04/14 11:47:36;;;;;;;;;17.75;16.75;;;;;;;;12513708;28;8849;-59
2021/04/14 11:53:54;;;;;;;;;20.50;20.25;;;;;;;;12532248;28;8837;-56
2021/04/14 12:00:30;;;;;;;;;47.25;40.25;;;;;;;;12530193;28;8936;-56
2021/04/14 12:06:32;;;;;;;;;38.50;34.00;;;;;;;;12506880;28;8930;-57
2021/04/14 12:12:34;;;;;;;;;26.25;26.25;;;;;;;;12495721;28;8855;-58
2021/04/14 12:18:36;;;;;;;;;29.75;25.50;;;;;;;;12482091;28;8647;-56
2021/04/14 12:24:38;;;;;;;;;21.50;21.50;;;;;;;;12522187;28;9603;-59
2021/04/14 12:30:55;;;;;;;;;16.00;14.25;;;;;;;;12530064;28;8863;-58
2021/04/14 12:37:17;;;;;;;;;17.75;16.75;;;;;;;;12528794;28;9005;-53
2021/04/14 12:43:18;;;;;;;;;22.25;21.75;;;;;;;;12507709;28;8827;-57
2021/04/14 12:49:21;;;;;;;;;21.75;20.00;;;;;;;;12481013;28;8863;-58
2021/04/14 12:55:32;;;;;;;;;17.75;16.25;;;;;;;;12527974;28;8966;-58
2021/04/14 13:01:34;;;;;;;;;17.25;15.75;;;;;;;;12502226;28;8989;-58
2021/04/14 13:07:59;;;;;;;;;19.00;17.00;;;;;;;;12505485;28;8863;-60
2021/04/14 13:14:01;;;;;;;;;16.50;16.50;;;;;;;;12513033;28;8955;-55
2021/04/14 13:20:04;;;;;;;;;20.25;17.00;;;;;;;;12529386;28;8833;-57
2021/04/14 13:26:18;;;;;;;;;13.75;13.75;;;;;;;;12517815;28;8860;-57
2021/04/14 13:32:36;;;;;;;;;19.00;17.75;;;;;;;;12503889;28;8848;-57
2021/04/14 13:38:43;;;;;;;;;14.00;14.00;;;;;;;;12493899;28;8838;-56
2021/04/14 13:44:49;;;;;;;;;20.00;17.25;;;;;;;;12509188;28;8864;-62
2021/04/14 13:50:56;;;;;;;;;15.00;15.00;;;;;;;;12538608;28;8852;-60
2021/04/14 13:57:00;;;;;;;;;15.75;15.75;;;;;;;;12537422;28;8942;-57
2021/04/14 14:03:02;;;;;;;;;19.75;18.50;;;;;;;;12535571;28;8865;-59
2021/04/14 14:09:05;;;;;;;;;22.75;20.75;;;;;;;;12536957;28;8860;-60
2021/04/14 14:15:18;;;;;;;;;15.75;15.75;;;;;;;;12504021;28;8865;-55
2021/04/14 14:21:20;;;;;;;;;22.75;19.00;;;;;;;;12488126;28;8835;-57
2021/04/14 14:27:23;;;;;;;;;25.25;22.50;;;;;;;;12487197;28;8921;-58
2021/04/14 14:33:42;;;;;;;;;21.00;20.00;;;;;;;;12487783;28;8908;-58
2021/04/14 14:39:49;;;;;;;;;20.75;20.00;;;;;;;;12486885;28;8875;-57
2021/04/14 14:45:55;;;;;;;;;25.25;23.00;;;;;;;;12486947;28;8881;-58
2021/04/14 14:51:59;;;;;;;;;20.50;18.25;;;;;;;;12485901;28;8843;-57
2021/04/14 14:58:16;;;;;;;;;24.25;22.75;;;;;;;;12485799;28;8847;-54
2021/04/14 15:04:18;;;;;;;;;27.75;26.25;;;;;;;;12529953;28;8855;-57
2021/04/14 15:10:24;;;;;;;;;27.50;24.75;;;;;;;;12485671;28;8850;-59
2021/04/14 15:16:25;;;;;;;;;25.50;25.50;;;;;;;;12530638;28;9623;-58
2021/04/14 15:22:28;;;;;;;;;26.75;24.50;;;;;;;;12520956;28;8897;-59
2021/04/14 15:28:32;;;;;;;;;25.75;24.25;;;;;;;;12485486;28;8856;-58
2021/04/14 15:34:36;;;;;;;;;24.25;22.25;;;;;;;;12484400;28;8871;-57
2021/04/14 15:40:38;;;;;;;;;26.75;22.75;;;;;;;;12484897;28;8867;-56
2021/04/14 15:46:40;;;;;;;;;28.75;24.00;;;;;;;;12484986;28;8863;-57
2021/04/14 15:52:42;;;;;;;;;25.25;25.25;;;;;;;;12482815;28;8828;-58
2021/04/14 15:58:45;;;;;;;;;33.00;32.50;;;;;;;;12483308;28;8867;-59
2021/04/14 16:04:56;;;;;;;;;33.75;33.75;;;;;;;;12512914;28;8859;-56
2021/04/14 16:10:58;;;;;;;;;25.50;22.50;;;;;;;;12480966;28;8833;-57
2021/04/14 16:33:19;;;;;;;;;16.75;16.75;;;;;;;;8935483;39;17364;-58
2021/04/14 16:39:21;;;;;;;;;16.50;14.75;;;;;;;;8969355;39;10397;-56
2021/04/14 16:45:25;;;;;;;;;22.00;18.25;;;;;;;;8971955;39;10341;-58
2021/04/14 16:51:27;;;;;;;;;20.75;20.75;;;;;;;;8970400;39;10408;-59
2021/04/14 16:57:29;;;;;;;;;29.00;24.50;;;;;;;;8970558;39;10360;-57
2021/04/14 17:03:30;;;;;;;;;28.00;25.75;;;;;;;;8961563;39;11069;-59
2021/04/14 17:09:32;;;;;;;;;30.25;27.25;;;;;;;;8971622;39;10397;-58
2021/04/14 17:15:34;;;;;;;;;24.00;22.50;;;;;;;;8962600;39;10471;-59
2021/04/14 17:21:39;;;;;;;;;27.25;22.75;;;;;;;;8953783;39;10391;-58
2021/04/14 17:27:40;;;;;;;;;29.75;28.00;;;;;;;;8945068;39;10277;-58
2021/04/14 17:33:42;;;;;;;;;28.25;25.75;;;;;;;;8946505;39;10437;-60
2021/04/14 17:39:43;;;;;;;;;31.50;27.25;;;;;;;;8942578;39;10996;-57
2021/04/14 17:45:45;;;;;;;;;32.75;26.25;;;;;;;;8928291;40;10444;-58
2021/04/14 17:51:47;;;;;;;;;29.25;25.75;;;;;;;;8931842;39;10332;-58
2021/04/14 17:57:49;;;;;;;;;25.50;23.75;;;;;;;;8952432;39;10436;-56
2021/04/14 18:03:50;;;;;;;;;26.25;22.00;;;;;;;;8954278;39;10646;-58
2021/04/14 18:09:52;;;;;;;;;25.00;21.25;;;;;;;;8952534;39;10415;-57
2021/04/14 18:15:53;;;;;;;;;18.00;17.25;;;;;;;;8952862;39;10316;-58
2021/04/14 18:21:55;;;;;;;;;24.75;22.75;;;;;;;;8953359;39;10449;-57
2021/04/14 18:27:56;;;;;;;;;32.75;27.75;;;;;;;;8952982;39;10559;-57
2021/04/14 18:33:57;;;;;;;;;18.50;17.75;;;;;;;;8951209;39;10442;-57
2021/04/14 18:39:59;;;;;;;;;20.50;19.75;;;;;;;;8948343;39;10413;-56
2021/04/14 18:46:02;;;;;;;;;24.25;21.50;;;;;;;;8952204;39;10406;-59
2021/04/14 18:52:04;;;;;;;;;21.25;19.50;;;;;;;;8948468;39;10677;-59
2021/04/14 18:58:05;;;;;;;;;22.75;20.00;;;;;;;;8950020;39;10331;-55
2021/04/14 19:04:07;;;;;;;;;27.25;24.50;;;;;;;;8949638;39;10396;-58
2021/04/14 19:10:11;;;;;;;;;22.50;19.50;;;;;;;;8949394;39;10385;-59
2021/04/14 19:16:13;;;;;;;;;13.00;12.00;;;;;;;;8949369;39;10519;-57
2021/04/14 19:22:14;;;;;;;;;19.75;17.00;;;;;;;;8948684;39;10397;-56
2021/04/14 19:28:24;;;;;;;;;12.25;12.25;;;;;;;;8924468;39;10352;-59
2021/04/14 19:34:26;;;;;;;;;16.00;15.00;;;;;;;;8924331;40;10604;-58
2021/04/14 19:40:29;;;;;;;;;16.75;15.00;;;;;;;;8923693;40;10456;-56
2021/04/14 19:46:31;;;;;;;;;11.75;10.25;;;;;;;;8924260;40;10360;-58
2021/04/14 19:52:33;;;;;;;;;12.00;11.50;;;;;;;;8924783;39;10338;-57
2021/04/14 19:58:35;;;;;;;;;10.25;9.00;;;;;;;;8923698;39;10309;-59
2021/04/14 20:04:36;;;;;;;;;11.00;9.00;;;;;;;;8923699;39;10381;-58
2021/04/14 20:10:40;;;;;;;;;11.25;9.25;;;;;;;;8923185;39;10323;-57
2021/04/14 20:16:41;;;;;;;;;7.25;5.25;;;;;;;;8924948;39;10414;-54
2021/04/14 20:22:46;;;;;;;;;11.25;11.25;;;;;;;;8922669;40;10499;-57
2021/04/14 20:28:53;;;;;;;;;9.00;9.00;;;;;;;;8923739;39;10394;-57
2021/04/14 20:34:55;;;;;;;;;13.00;11.25;;;;;;;;8924233;39;10335;-58
2021/04/14 20:40:57;;;;;;;;;8.00;7.25;;;;;;;;8922698;39;10286;-56
2021/04/14 20:46:58;;;;;;;;;9.75;9.75;;;;;;;;8911677;39;10259;-56
2021/04/14 20:53:00;;;;;;;;;7.25;7.25;;;;;;;;8948303;39;10430;-57
2021/04/14 20:59:02;;;;;;;;;12.50;11.00;;;;;;;;8947955;39;10312;-58
2021/04/14 21:05:05;;;;;;;;;11.75;11.75;;;;;;;;8931881;39;10345;-56
2021/04/14 21:11:06;;;;;;;;;11.75;9.25;;;;;;;;8922250;39;10431;-56
2021/04/14 21:17:08;;;;;;;;;15.00;11.00;;;;;;;;8925688;39;10373;-56
2021/04/14 21:23:09;;;;;;;;;10.00;10.00;;;;;;;;8925942;39;10874;-57
2021/04/14 21:29:11;;;;;;;;;15.50;10.25;;;;;;;;8926606;39;10501;-57
2021/04/14 21:35:13;;;;;;;;;11.50;10.75;;;;;;;;8926262;39;10416;-57
2021/04/14 21:41:15;;;;;;;;;15.50;11.00;;;;;;;;8925958;39;10386;-54
2021/04/14 21:47:17;;;;;;;;;11.50;11.00;;;;;;;;8926381;39;10322;-57
2021/04/14 21:53:19;;;;;;;;;10.25;9.50;;;;;;;;8925403;39;10334;-57
2021/04/14 21:59:20;;;;;;;;;18.25;15.50;;;;;;;;8925549;39;10369;-58
2021/04/14 22:05:21;;;;;;;;;12.00;12.00;;;;;;;;8927009;39;10395;-56
2021/04/14 22:11:23;;;;;;;;;11.75;9.50;;;;;;;;8926040;39;10340;-54
2021/04/14 22:17:24;;;;;;;;;11.25;10.50;;;;;;;;8925810;39;10345;-55
2021/04/14 22:23:28;;;;;;;;;14.75;12.50;;;;;;;;8925334;39;10325;-57
2021/04/14 22:29:29;;;;;;;;;13.75;12.50;;;;;;;;8925682;39;10408;-56
2021/04/14 22:35:33;;;;;;;;;15.75;12.50;;;;;;;;8925486;39;10376;-55
2021/04/14 22:41:35;;;;;;;;;12.75;11.75;;;;;;;;8924883;39;10334;-57
2021/04/14 22:47:36;;;;;;;;;18.75;16.25;;;;;;;;8926274;39;10385;-54
2021/04/14 22:53:39;;;;;;;;;14.00;11.00;;;;;;;;8924925;39;10382;-57
2021/04/14 22:59:40;;;;;;;;;17.25;17.00;;;;;;;;8925649;39;10388;-55
2021/04/14 23:05:42;;;;;;;;;16.00;15.75;;;;;;;;8924804;39;10399;-56
2021/04/14 23:11:44;;;;;;;;;12.00;10.75;;;;;;;;8924095;39;10322;-56
2021/04/14 23:17:46;;;;;;;;;12.75;12.75;;;;;;;;8925027;39;10438;-57
2021/04/14 23:23:48;;;;;;;;;18.75;17.00;;;;;;;;8925171;39;10453;-56
2021/04/14 23:29:49;;;;;;;;;16.75;15.50;;;;;;;;8924665;39;10420;-56
2021/04/14 23:35:52;;;;;;;;;11.25;9.50;;;;;;;;8924390;39;10961;-57
2021/04/14 23:41:53;;;;;;;;;19.25;15.75;;;;;;;;8924649;39;10425;-57
2021/04/14 23:47:56;;;;;;;;;18.25;14.50;;;;;;;;8924285;39;10414;-57
2021/04/14 23:53:57;;;;;;;;;17.75;17.75;;;;;;;;8924573;39;10892;-56
2021/04/14 23:59:58;;;;;;;;;18.00;15.00;;;;;;;;8923655;39;10998;-55
